Time;durP1;ratioP1;P1;durP2;ratioP2;P2;SDS_P1;SDS_P2;PMS_P1;PMS_P2;Temp;Humidity;BMP_temperature;BMP_pressure;BME280_temperature;BME280_humidity;BME280_pressure;Samples;Min_cycle;Max_cycle;Signal;HPM_P1;HPM_P2
2021/09/18 00:02:20;;;;;;;7.75;5.82;;;;;;;;;;6201884;22;20234;-91
2021/09/18 00:05:27;;;;;;;8.65;5.72;;;;;;;;;;6202381;23;20187;-91
2021/09/18 00:08:33;;;;;;;9.32;5.72;;;;;;;;;;6201265;23;20491;-91
2021/09/18 00:11:38;;;;;;;10.77;5.97;;;;;;;;;;6201554;22;20240;-90
2021/09/18 00:14:43;;;;;;;12.70;6.28;;;;;;;;;;6199360;23;20208;-90
2021/09/18 00:17:48;;;;;;;9.88;6.38;;;;;;;;;;6199364;22;20183;-91
2021/09/18 00:20:55;;;;;;;10.15;5.82;;;;;;;;;;6200193;22;20170;-92
2021/09/18 00:24:00;;;;;;;9.13;5.80;;;;;;;;;;6199564;22;20168;-93
2021/09/18 00:27:06;;;;;;;9.73;5.85;;;;;;;;;;6199329;23;20172;-92
2021/09/18 00:30:11;;;;;;;8.85;6.10;;;;;;;;;;6198665;23;20168;-91
2021/09/18 00:33:16;;;;;;;9.80;5.43;;;;;;;;;;6198606;22;20163;-91
2021/09/18 00:36:23;;;;;;;8.23;5.72;;;;;;;;;;6200320;22;20200;-92
2021/09/18 00:39:28;;;;;;;10.55;5.63;;;;;;;;;;6199637;22;20168;-91
2021/09/18 00:42:33;;;;;;;9.02;6.07;;;;;;;;;;6199201;22;20690;-91
2021/09/18 00:45:38;;;;;;;12.18;5.60;;;;;;;;;;6199150;22;20293;-93
2021/09/18 00:48:43;;;;;;;13.85;5.63;;;;;;;;;;6198067;23;20215;-89
2021/09/18 00:51:50;;;;;;;10.10;6.18;;;;;;;;;;6199341;22;20163;-92
2021/09/18 00:54:56;;;;;;;15.48;6.15;;;;;;;;;;6200807;23;20183;-93
2021/09/18 00:58:01;;;;;;;15.70;6.20;;;;;;;;;;6200992;22;20190;-92
2021/09/18 01:01:08;;;;;;;10.98;6.43;;;;;;;;;;6200134;22;20491;-92
2021/09/18 01:04:13;;;;;;;11.60;6.38;;;;;;;;;;6200588;22;20171;-90
2021/09/18 01:07:20;;;;;;;12.52;6.80;;;;;;;;;;6201957;22;20195;-92
2021/09/18 01:10:25;;;;;;;10.50;6.55;;;;;;;;;;6201599;22;20619;-91
2021/09/18 01:13:30;;;;;;;18.13;8.05;;;;;;;;;;6201560;23;20184;-93
2021/09/18 01:16:35;;;;;;;17.63;8.10;;;;;;;;;;6201707;23;20168;-92
2021/09/18 01:19:40;;;;;;;15.77;9.20;;;;;;;;;;6199277;23;20494;-93
2021/09/18 01:22:47;;;;;;;13.05;7.68;;;;;;;;;;6200724;23;20225;-91
2021/09/18 01:25:54;;;;;;;12.80;7.05;;;;;;;;;;6201616;23;20168;-92
2021/09/18 01:28:59;;;;;;;12.73;7.38;;;;;;;;;;6202538;22;20168;-92
2021/09/18 01:32:05;;;;;;;12.40;6.70;;;;;;;;;;6202222;22;20172;-90
2021/09/18 01:35:11;;;;;;;10.68;6.30;;;;;;;;;;6200635;22;20254;-91
2021/09/18 01:38:16;;;;;;;10.23;6.32;;;;;;;;;;6200139;23;20171;-91
2021/09/18 01:41:22;;;;;;;14.95;6.20;;;;;;;;;;6201335;23;20239;-92
2021/09/18 01:44:28;;;;;;;14.43;6.95;;;;;;;;;;6200561;23;20203;-90
2021/09/18 01:47:43;;;;;;;12.48;6.70;;;;;;;;;;6199788;23;20494;-92
2021/09/18 01:50:51;;;;;;;12.88;7.15;;;;;;;;;;6200997;23;20156;-91
2021/09/18 01:53:58;;;;;;;11.80;6.70;;;;;;;;;;6200047;23;20163;-88
2021/09/18 01:57:08;;;;;;;13.57;7.07;;;;;;;;;;6201975;22;20172;-90
2021/09/18 02:00:14;;;;;;;17.63;8.30;;;;;;;;;;6202748;23;20184;-90
2021/09/18 02:03:20;;;;;;;14.88;8.00;;;;;;;;;;6199942;23;20187;-91
2021/09/18 02:06:25;;;;;;;15.13;7.80;;;;;;;;;;6200389;22;20212;-93
2021/09/18 02:09:30;;;;;;;14.70;8.23;;;;;;;;;;6200177;23;20191;-92
2021/09/18 02:12:37;;;;;;;16.00;8.00;;;;;;;;;;6200482;22;20219;-92
2021/09/18 02:15:42;;;;;;;14.52;8.68;;;;;;;;;;6199905;22;20168;-92
2021/09/18 02:18:47;;;;;;;16.92;8.48;;;;;;;;;;6198417;23;20172;-92
2021/09/18 02:21:52;;;;;;;14.77;8.52;;;;;;;;;;6198537;23;20245;-92
2021/09/18 02:24:57;;;;;;;18.23;8.15;;;;;;;;;;6198872;23;20171;-91
2021/09/18 02:28:05;;;;;;;16.67;8.57;;;;;;;;;;6199233;22;20168;-92
2021/09/18 02:31:10;;;;;;;16.67;8.88;;;;;;;;;;6198376;22;20171;-93
2021/09/18 02:34:15;;;;;;;15.32;7.72;;;;;;;;;;6199086;23;20195;-92
2021/09/18 02:37:21;;;;;;;15.07;8.02;;;;;;;;;;6197956;22;20175;-92
2021/09/18 02:40:27;;;;;;;13.45;7.72;;;;;;;;;;6197834;22;20172;-92
2021/09/18 02:43:33;;;;;;;13.45;8.85;;;;;;;;;;6198639;23;20527;-93
2021/09/18 02:46:38;;;;;;;15.68;7.90;;;;;;;;;;6198297;22;20180;-93
2021/09/18 02:49:44;;;;;;;17.77;8.10;;;;;;;;;;6197575;23;20167;-90
2021/09/18 02:52:49;;;;;;;13.32;7.90;;;;;;;;;;6197842;23;20228;-91
2021/09/18 02:55:54;;;;;;;12.00;8.10;;;;;;;;;;6197677;22;20168;-91
2021/09/18 02:59:01;;;;;;;18.65;8.38;;;;;;;;;;6200053;23;20167;-92
2021/09/18 03:02:07;;;;;;;13.70;8.60;;;;;;;;;;6199772;22;20240;-92
2021/09/18 03:05:12;;;;;;;11.75;7.82;;;;;;;;;;6199250;23;20171;-90
2021/09/18 03:08:18;;;;;;;12.02;8.35;;;;;;;;;;6199925;23;20175;-93
2021/09/18 03:11:23;;;;;;;12.93;8.30;;;;;;;;;;6198812;23;20168;-90
2021/09/18 03:14:29;;;;;;;16.45;9.93;;;;;;;;;;6198422;23;20187;-91
2021/09/18 03:17:34;;;;;;;17.17;8.93;;;;;;;;;;6198607;23;20151;-90
2021/09/18 03:20:39;;;;;;;17.10;9.15;;;;;;;;;;6198533;23;20172;-91
2021/09/18 03:23:45;;;;;;;13.68;8.55;;;;;;;;;;6198906;23;20199;-91
2021/09/18 03:26:51;;;;;;;18.23;9.40;;;;;;;;;;6200170;22;20167;-92
2021/09/18 03:29:57;;;;;;;13.18;8.80;;;;;;;;;;6199536;23;20168;-91
2021/09/18 03:33:02;;;;;;;18.40;9.15;;;;;;;;;;6199229;23;20176;-92
2021/09/18 03:36:07;;;;;;;15.35;9.05;;;;;;;;;;6198599;22;20163;-91
2021/09/18 03:39:12;;;;;;;13.40;9.55;;;;;;;;;;6198762;23;20627;-91
2021/09/18 03:42:17;;;;;;;16.40;9.70;;;;;;;;;;6199839;23;20224;-91
2021/09/18 03:45:23;;;;;;;20.23;10.52;;;;;;;;;;6199528;23;20239;-92
2021/09/18 03:48:28;;;;;;;21.88;11.35;;;;;;;;;;6197929;23;20168;-91
2021/09/18 03:51:33;;;;;;;18.63;10.32;;;;;;;;;;6199340;23;20208;-91
2021/09/18 03:54:38;;;;;;;18.40;10.52;;;;;;;;;;6200241;23;20171;-91
2021/09/18 03:57:43;;;;;;;14.27;9.88;;;;;;;;;;6199646;22;20227;-90
2021/09/18 04:05:11;;;;;;;17.20;11.50;;;;;;;;;;6199570;23;20144;-92
2021/09/18 04:08:16;;;;;;;19.15;12.27;;;;;;;;;;6197492;22;20190;-92
2021/09/18 04:11:21;;;;;;;20.55;11.95;;;;;;;;;;6198347;23;20176;-92
2021/09/18 04:14:26;;;;;;;18.67;12.40;;;;;;;;;;6199357;23;20618;-92
2021/09/18 04:17:31;;;;;;;23.75;12.55;;;;;;;;;;6197419;22;20172;-90
2021/09/18 04:20:37;;;;;;;18.77;11.98;;;;;;;;;;6198324;23;20223;-91
2021/09/18 04:23:47;;;;;;;19.52;12.50;;;;;;;;;;6197571;23;20311;-90
2021/09/18 04:26:52;;;;;;;24.00;13.25;;;;;;;;;;6198483;23;20163;-91
2021/09/18 04:29:57;;;;;;;23.17;13.45;;;;;;;;;;6200028;22;20240;-92
2021/09/18 04:33:02;;;;;;;21.45;13.00;;;;;;;;;;6201064;23;20178;-89
2021/09/18 04:36:09;;;;;;;17.67;12.05;;;;;;;;;;6198997;23;20167;-91
2021/09/18 04:39:14;;;;;;;21.48;12.63;;;;;;;;;;6199178;23;20631;-92
2021/09/18 04:42:19;;;;;;;22.60;13.65;;;;;;;;;;6198572;23;20196;-91
2021/09/18 04:45:25;;;;;;;20.63;13.20;;;;;;;;;;6199331;23;20176;-92
2021/09/18 04:48:30;;;;;;;20.65;12.85;;;;;;;;;;6197795;23;20591;-91
2021/09/18 04:51:41;;;;;;;23.30;13.75;;;;;;;;;;6199557;22;20156;-91
2021/09/18 04:54:45;;;;;;;20.02;12.55;;;;;;;;;;6197176;22;20172;-92
2021/09/18 04:57:51;;;;;;;20.58;12.98;;;;;;;;;;6198017;23;20159;-91
2021/09/18 05:00:56;;;;;;;19.50;12.68;;;;;;;;;;6198607;22;20168;-91
2021/09/18 05:04:01;;;;;;;21.58;12.90;;;;;;;;;;6197465;23;20194;-90
2021/09/18 05:07:08;;;;;;;20.50;13.10;;;;;;;;;;6199477;22;20223;-92
2021/09/18 05:10:14;;;;;;;22.20;12.15;;;;;;;;;;6199176;23;20223;-90
2021/09/18 05:13:19;;;;;;;25.35;13.75;;;;;;;;;;6197260;22;20268;-90
2021/09/18 05:16:24;;;;;;;21.45;12.60;;;;;;;;;;6197130;23;20163;-92
2021/09/18 05:19:29;;;;;;;23.73;13.93;;;;;;;;;;6198373;22;20159;-92
2021/09/18 05:22:36;;;;;;;24.38;12.30;;;;;;;;;;6197841;23;20214;-91
2021/09/18 05:25:41;;;;;;;22.25;12.95;;;;;;;;;;6200373;22;20168;-92
2021/09/18 05:28:46;;;;;;;23.00;13.27;;;;;;;;;;6198395;23;20679;-92
2021/09/18 05:31:51;;;;;;;21.30;12.38;;;;;;;;;;6197590;23;20172;-92
2021/09/18 05:34:57;;;;;;;21.65;12.38;;;;;;;;;;6198452;22;20184;-92
2021/09/18 05:38:04;;;;;;;19.50;12.02;;;;;;;;;;6201009;23;20171;-92
2021/09/18 05:41:09;;;;;;;19.45;11.98;;;;;;;;;;6198995;23;20251;-91
2021/09/18 05:44:14;;;;;;;20.88;11.80;;;;;;;;;;6198230;22;20698;-92
2021/09/18 05:47:19;;;;;;;20.75;11.93;;;;;;;;;;6198428;23;20175;-92
2021/09/18 05:50:26;;;;;;;18.40;11.43;;;;;;;;;;6196589;22;20167;-89
2021/09/18 05:53:36;;;;;;;21.92;11.77;;;;;;;;;;6199052;23;20156;-92
2021/09/18 05:56:42;;;;;;;20.10;11.63;;;;;;;;;;6196477;22;20171;-90
2021/09/18 05:59:47;;;;;;;19.15;11.63;;;;;;;;;;6196232;23;20544;-91
2021/09/18 06:02:52;;;;;;;17.55;10.73;;;;;;;;;;6197017;23;20222;-92
2021/09/18 06:05:58;;;;;;;19.67;11.38;;;;;;;;;;6196993;23;20175;-90
2021/09/18 06:09:05;;;;;;;19.50;11.68;;;;;;;;;;6198170;23;20159;-91
2021/09/18 06:12:10;;;;;;;19.15;11.52;;;;;;;;;;6197942;23;20199;-91
2021/09/18 06:15:15;;;;;;;20.38;11.70;;;;;;;;;;6199663;23;20180;-91
2021/09/18 06:18:21;;;;;;;20.60;11.60;;;;;;;;;;6199329;23;20205;-91
2021/09/18 06:21:25;;;;;;;19.95;12.05;;;;;;;;;;6200827;23;20211;-90
2021/09/18 06:24:33;;;;;;;19.73;11.75;;;;;;;;;;6200046;22;20198;-90
2021/09/18 06:27:38;;;;;;;18.85;12.05;;;;;;;;;;6198919;23;20164;-91
2021/09/18 06:30:43;;;;;;;19.83;11.43;;;;;;;;;;6199996;23;20195;-91
2021/09/18 06:33:48;;;;;;;21.27;11.63;;;;;;;;;;6200209;22;20696;-90
2021/09/18 06:36:54;;;;;;;21.35;12.60;;;;;;;;;;6200385;23;20199;-91
2021/09/18 06:40:00;;;;;;;19.67;10.77;;;;;;;;;;6200912;23;20175;-92
2021/09/18 06:43:05;;;;;;;18.15;10.65;;;;;;;;;;6199954;23;20221;-91
2021/09/18 06:46:11;;;;;;;18.00;11.25;;;;;;;;;;6200588;23;20243;-91
2021/09/18 06:49:17;;;;;;;18.40;11.00;;;;;;;;;;6199965;23;20164;-93
2021/09/18 06:52:22;;;;;;;16.75;11.02;;;;;;;;;;6197227;23;20171;-93
2021/09/18 06:55:30;;;;;;;18.90;11.05;;;;;;;;;;6198787;23;20171;-91
2021/09/18 06:58:36;;;;;;;16.85;10.48;;;;;;;;;;6198106;23;20287;-92
2021/09/18 07:01:41;;;;;;;14.52;10.07;;;;;;;;;;6198539;23;20171;-91
2021/09/18 07:04:47;;;;;;;14.82;10.25;;;;;;;;;;6199974;22;20187;-90
2021/09/18 07:07:54;;;;;;;17.95;11.27;;;;;;;;;;6198896;23;20236;-91
2021/09/18 07:11:01;;;;;;;17.80;10.90;;;;;;;;;;6199265;23;20176;-92
2021/09/18 07:14:06;;;;;;;16.25;11.02;;;;;;;;;;6198356;22;20172;-92
2021/09/18 07:17:11;;;;;;;16.90;11.25;;;;;;;;;;6201563;23;20215;-92
2021/09/18 07:20:17;;;;;;;18.95;11.80;;;;;;;;;;6200955;23;20171;-91
2021/09/18 07:23:24;;;;;;;18.50;11.10;;;;;;;;;;6202189;23;20191;-91
2021/09/18 07:26:31;;;;;;;17.08;10.90;;;;;;;;;;6201748;23;20176;-91
2021/09/18 07:29:37;;;;;;;15.88;10.68;;;;;;;;;;6202482;22;20251;-93
2021/09/18 07:32:43;;;;;;;15.52;9.95;;;;;;;;;;6200288;22;20167;-91
2021/09/18 07:35:50;;;;;;;17.25;10.80;;;;;;;;;;6202005;23;20475;-91
2021/09/18 07:38:57;;;;;;;19.85;11.18;;;;;;;;;;6203630;22;20168;-92
2021/09/18 07:42:04;;;;;;;17.85;11.60;;;;;;;;;;6199439;23;20220;-91
2021/09/18 07:45:10;;;;;;;15.85;10.65;;;;;;;;;;6201308;22;20156;-90
2021/09/18 07:48:15;;;;;;;16.33;10.15;;;;;;;;;;6201000;22;20167;-92
2021/09/18 07:51:21;;;;;;;21.80;11.25;;;;;;;;;;6202749;22;20188;-90
2021/09/18 07:54:26;;;;;;;19.20;11.20;;;;;;;;;;6203784;22;20263;-92
2021/09/18 07:57:33;;;;;;;18.73;11.07;;;;;;;;;;6202619;22;20167;-92
2021/09/18 08:00:38;;;;;;;17.15;10.50;;;;;;;;;;6201942;22;20219;-93
2021/09/18 08:03:43;;;;;;;20.00;10.80;;;;;;;;;;6199978;22;20198;-90
2021/09/18 08:06:49;;;;;;;18.35;10.57;;;;;;;;;;6202338;23;20163;-91
2021/09/18 08:09:56;;;;;;;16.02;11.13;;;;;;;;;;6204153;22;20171;-92
2021/09/18 08:13:04;;;;;;;16.38;10.63;;;;;;;;;;6205089;22;20209;-91
2021/09/18 08:16:09;;;;;;;15.30;10.15;;;;;;;;;;6201690;23;20164;-92
2021/09/18 08:19:17;;;;;;;17.50;10.23;;;;;;;;;;6201938;22;20244;-93
2021/09/18 08:22:22;;;;;;;17.05;9.40;;;;;;;;;;6202620;22;20243;-91
2021/09/18 08:25:28;;;;;;;15.60;9.27;;;;;;;;;;6202867;23;20168;-93
2021/09/18 08:28:35;;;;;;;16.05;9.48;;;;;;;;;;6203337;23;20175;-93
2021/09/18 08:31:40;;;;;;;14.27;9.48;;;;;;;;;;6203731;23;20615;-92
2021/09/18 08:34:45;;;;;;;18.75;9.27;;;;;;;;;;6203544;23;20219;-92
2021/09/18 08:37:51;;;;;;;12.07;8.45;;;;;;;;;;6202395;23;20166;-90
2021/09/18 08:40:57;;;;;;;11.68;8.20;;;;;;;;;;6201735;23;20219;-89
2021/09/18 08:44:05;;;;;;;11.95;8.75;;;;;;;;;;6201506;22;20199;-92
2021/09/18 08:47:12;;;;;;;13.07;8.60;;;;;;;;;;6202651;23;20494;-91
2021/09/18 08:50:27;;;;;;;12.95;8.30;;;;;;;;;;6206095;23;20384;-91
2021/09/18 08:53:34;;;;;;;11.05;8.00;;;;;;;;;;6204962;22;20227;-93
2021/09/18 08:56:40;;;;;;;11.65;7.75;;;;;;;;;;6204828;22;20184;-90
2021/09/18 08:59:47;;;;;;;10.32;7.43;;;;;;;;;;6203738;22;20175;-93
2021/09/18 09:02:55;;;;;;;9.43;6.35;;;;;;;;;;6205059;23;20171;-92
2021/09/18 09:06:16;;;;;;;13.73;7.03;;;;;;;;;;6203147;23;20184;-93
2021/09/18 09:09:22;;;;;;;12.30;7.38;;;;;;;;;;6204456;22;20175;-92
2021/09/18 09:12:29;;;;;;;10.63;6.80;;;;;;;;;;6202992;23;20167;-92
2021/09/18 09:15:44;;;;;;;8.02;5.88;;;;;;;;;;6204658;22;20194;-92
2021/09/18 09:18:52;;;;;;;9.82;6.30;;;;;;;;;;6203622;22;20155;-92
2021/09/18 09:21:59;;;;;;;8.77;5.97;;;;;;;;;;6203124;22;20167;-92
2021/09/18 09:25:05;;;;;;;8.90;6.25;;;;;;;;;;6202821;22;20194;-92
2021/09/18 09:28:29;;;;;;;8.23;6.20;;;;;;;;;;6203419;22;20171;-92
2021/09/18 09:31:38;;;;;;;7.53;6.07;;;;;;;;;;6201490;23;20170;-91
2021/09/18 09:34:43;;;;;;;7.78;6.00;;;;;;;;;;6205157;22;20584;-92
2021/09/18 09:37:55;;;;;;;9.18;6.07;;;;;;;;;;6203250;22;20159;-92
2021/09/18 09:41:02;;;;;;;11.10;6.70;;;;;;;;;;6203085;22;20187;-91
2021/09/18 09:44:12;;;;;;;8.52;6.07;;;;;;;;;;6203737;23;20272;-92
2021/09/18 09:47:22;;;;;;;10.15;6.65;;;;;;;;;;6203861;22;20505;-92
2021/09/18 09:50:28;;;;;;;8.23;5.22;;;;;;;;;;6203031;22;20175;-90
2021/09/18 09:53:36;;;;;;;7.40;5.05;;;;;;;;;;6202311;22;20187;-91
2021/09/18 09:56:41;;;;;;;8.35;4.78;;;;;;;;;;6202352;22;20167;-91
2021/09/18 09:59:47;;;;;;;6.18;4.70;;;;;;;;;;6205816;22;20164;-93
2021/09/18 10:02:55;;;;;;;7.65;4.93;;;;;;;;;;6201009;22;20168;-92
2021/09/18 10:06:00;;;;;;;5.72;4.60;;;;;;;;;;6202259;22;20176;-91
2021/09/18 10:09:06;;;;;;;6.45;4.50;;;;;;;;;;6202342;22;20243;-94
2021/09/18 10:12:14;;;;;;;7.90;4.65;;;;;;;;;;6201595;23;20168;-93
2021/09/18 10:15:19;;;;;;;9.55;4.70;;;;;;;;;;6202567;23;20197;-92
2021/09/18 10:25:21;;;;;;;11.32;4.80;;;;;;;;;;6199927;22;20196;-92
2021/09/18 10:28:28;;;;;;;6.00;4.13;;;;;;;;;;6202967;22;20172;-93
2021/09/18 10:31:33;;;;;;;7.70;4.70;;;;;;;;;;6201904;23;20167;-91
2021/09/18 10:34:42;;;;;;;6.28;4.57;;;;;;;;;;6201014;22;20172;-91
2021/09/18 10:37:49;;;;;;;10.45;4.72;;;;;;;;;;6202100;23;20177;-91
2021/09/18 10:40:58;;;;;;;6.55;4.50;;;;;;;;;;6203767;22;20212;-92
2021/09/18 10:44:08;;;;;;;8.23;4.88;;;;;;;;;;6202619;23;20235;-90
2021/09/18 10:47:34;;;;;;;8.38;4.65;;;;;;;;;;6201006;22;20168;-92
2021/09/18 10:50:41;;;;;;;8.60;4.53;;;;;;;;;;6202350;22;20179;-90
2021/09/18 10:54:13;;;;;;;9.63;4.85;;;;;;;;;;6201782;22;20172;-91
2021/09/18 10:57:19;;;;;;;6.93;3.75;;;;;;;;;;6173631;23;20191;-91
2021/09/18 11:00:57;;;;;;;10.73;3.75;;;;;;;;;;6202109;23;20156;-92
2021/09/18 11:04:02;;;;;;;4.93;3.40;;;;;;;;;;6123196;23;20236;-91
2021/09/18 11:07:29;;;;;;;5.93;3.42;;;;;;;;;;6126213;23;20168;-91
2021/09/18 11:10:51;;;;;;;6.35;3.65;;;;;;;;;;6201931;22;20148;-92
2021/09/18 11:13:57;;;;;;;5.97;3.03;;;;;;;;;;6199786;22;20192;-92
2021/09/18 11:17:02;;;;;;;7.63;3.88;;;;;;;;;;6199685;22;20159;-92
2021/09/18 11:20:14;;;;;;;5.57;3.50;;;;;;;;;;6200810;22;20215;-93
2021/09/18 11:23:34;;;;;;;7.18;3.50;;;;;;;;;;6201210;23;20168;-90
2021/09/18 11:26:47;;;;;;;7.93;3.53;;;;;;;;;;6202789;22;20167;-92
2021/09/18 11:29:52;;;;;;;4.95;3.47;;;;;;;;;;6203482;23;20247;-92
2021/09/18 11:32:58;;;;;;;6.00;3.97;;;;;;;;;;6201971;22;20163;-92
2021/09/18 11:36:03;;;;;;;7.75;3.53;;;;;;;;;;6202456;22;20195;-92
2021/09/18 11:39:25;;;;;;;7.72;3.80;;;;;;;;;;6203170;22;20203;-91
2021/09/18 11:42:49;;;;;;;6.15;3.78;;;;;;;;;;6202451;22;20211;-91
2021/09/18 11:45:58;;;;;;;6.40;3.70;;;;;;;;;;6204494;23;20191;-92
2021/09/18 11:49:06;;;;;;;6.47;3.80;;;;;;;;;;6204936;22;20223;-90
2021/09/18 11:52:13;;;;;;;9.80;3.70;;;;;;;;;;6205648;22;20245;-91
2021/09/18 11:55:32;;;;;;;6.50;3.97;;;;;;;;;;6205737;23;20676;-91
2021/09/18 11:58:43;;;;;;;6.05;3.90;;;;;;;;;;6205803;22;20240;-91
2021/09/18 12:02:05;;;;;;;5.07;3.60;;;;;;;;;;6206436;22;20172;-92
2021/09/18 12:05:19;;;;;;;7.53;3.78;;;;;;;;;;6206486;22;20207;-90
2021/09/18 12:08:25;;;;;;;4.82;3.33;;;;;;;;;;6204281;23;20191;-90
2021/09/18 12:11:32;;;;;;;9.68;3.50;;;;;;;;;;6203331;22;20168;-90
2021/09/18 12:14:39;;;;;;;6.72;3.70;;;;;;;;;;6206187;23;20152;-92
2021/09/18 12:17:47;;;;;;;5.38;3.55;;;;;;;;;;6205367;22;20243;-91
2021/09/18 12:20:56;;;;;;;5.72;3.90;;;;;;;;;;6204600;22;20172;-92
2021/09/18 12:24:02;;;;;;;6.22;4.10;;;;;;;;;;6205106;22;20211;-91
2021/09/18 12:27:24;;;;;;;4.25;3.42;;;;;;;;;;6204444;23;20177;-90
2021/09/18 12:30:42;;;;;;;6.28;3.92;;;;;;;;;;6210341;22;20172;-90
2021/09/18 12:33:49;;;;;;;7.80;3.95;;;;;;;;;;6204025;22;20167;-91
2021/09/18 22:00:57;;;;;;;20.77;10.98;;;;;;;;;;6142284;23;20237;-90
2021/09/18 22:04:06;;;;;;;19.20;10.52;;;;;;;;;;6203080;22;20233;-90
2021/09/18 22:07:12;;;;;;;17.05;11.18;;;;;;;;;;6202839;23;20167;-91
2021/09/18 22:10:18;;;;;;;16.95;10.40;;;;;;;;;;6202687;22;20195;-93
2021/09/18 22:13:23;;;;;;;18.98;11.38;;;;;;;;;;6202485;22;20560;-91
2021/09/18 22:16:31;;;;;;;16.20;10.25;;;;;;;;;;6202057;23;20176;-92
2021/09/18 22:19:39;;;;;;;19.05;10.70;;;;;;;;;;6201060;23;20187;-91
2021/09/18 22:22:45;;;;;;;19.30;10.85;;;;;;;;;;6201744;23;20180;-91
2021/09/18 22:25:51;;;;;;;17.10;10.18;;;;;;;;;;6202228;22;20198;-89
2021/09/18 22:28:56;;;;;;;19.15;11.27;;;;;;;;;;6203936;23;20179;-91
2021/09/18 22:32:02;;;;;;;18.95;11.77;;;;;;;;;;6185743;23;20172;-92
2021/09/18 22:35:09;;;;;;;18.85;11.40;;;;;;;;;;6201063;23;20163;-92
2021/09/18 22:38:15;;;;;;;20.52;12.05;;;;;;;;;;6203091;23;20159;-91
2021/09/18 22:41:20;;;;;;;21.02;11.90;;;;;;;;;;6203258;23;20180;-92
2021/09/18 22:44:25;;;;;;;22.70;13.55;;;;;;;;;;6202148;22;20168;-92
2021/09/18 22:47:31;;;;;;;21.70;12.68;;;;;;;;;;6202962;22;20175;-92
2021/09/18 22:50:39;;;;;;;22.10;12.50;;;;;;;;;;6202092;22;20195;-91
2021/09/18 22:53:44;;;;;;;22.60;12.57;;;;;;;;;;6202040;23;20156;-89
2021/09/18 22:56:50;;;;;;;22.95;12.65;;;;;;;;;;6202073;23;20175;-91
2021/09/18 22:59:56;;;;;;;25.23;12.13;;;;;;;;;;6203894;23;20172;-91
2021/09/18 23:03:02;;;;;;;20.50;12.68;;;;;;;;;;6202812;23;20237;-90
2021/09/18 23:06:10;;;;;;;21.60;12.35;;;;;;;;;;6200929;23;20248;-91
2021/09/18 23:09:15;;;;;;;18.77;12.02;;;;;;;;;;6201042;22;20238;-92
2021/09/18 23:12:22;;;;;;;19.23;12.38;;;;;;;;;;6203508;23;20213;-91
2021/09/18 23:15:28;;;;;;;20.27;12.70;;;;;;;;;;6202839;22;20299;-92
2021/09/18 23:18:34;;;;;;;20.42;12.88;;;;;;;;;;6203785;23;20152;-90
2021/09/18 23:21:42;;;;;;;20.67;12.60;;;;;;;;;;6203236;22;20172;-91
2021/09/18 23:24:48;;;;;;;21.30;13.05;;;;;;;;;;6203669;23;20264;-90
2021/09/18 23:27:55;;;;;;;22.77;12.15;;;;;;;;;;6203692;23;20171;-91
2021/09/18 23:31:03;;;;;;;21.33;12.07;;;;;;;;;;6204624;23;20219;-91
2021/09/18 23:34:09;;;;;;;20.45;12.85;;;;;;;;;;6204082;22;20171;-90
2021/09/18 23:37:16;;;;;;;19.90;11.90;;;;;;;;;;6203991;23;20164;-93
2021/09/18 23:40:21;;;;;;;24.92;12.07;;;;;;;;;;6205058;22;20172;-90
2021/09/18 23:43:29;;;;;;;21.98;12.65;;;;;;;;;;6206364;23;20216;-91
2021/09/18 23:46:36;;;;;;;20.48;12.57;;;;;;;;;;6203617;22;20204;-90
2021/09/18 23:49:42;;;;;;;22.15;12.90;;;;;;;;;;6202921;22;20172;-91
2021/09/18 23:52:49;;;;;;;21.33;11.35;;;;;;;;;;6202239;23;20164;-90
2021/09/18 23:55:55;;;;;;;52.15;12.50;;;;;;;;;;6203910;22;20227;-89
2021/09/18 23:59:00;;;;;;;21.13;12.77;;;;;;;;;;6203293;22;20167;-91
